Canmore, Canada
Current Conditions -  °F | °C
As of 6:00 AM on Friday 31 Oct 2014 (Local Time) from CYBW Reporting Station
Broken Clouds Broken Clouds  
Wind Chill: 23°   Ceiling: 25000
Heat Index: 28°   Visibility: 9mi
Dew Point: 28°   Wind: 5mph
Humidity: 100%   Direction: 350°N
Pressure: 29.68"   Gusts: NA
Location:  51.09°N, 115.36°W
Report Text: CYBW 311200Z AUTO 35004KT 9SM SCT210 BKN250 M02/M02 A2968 RMK SLP094
Loading
Personal Weather Stations






























Interactive Weather Map New forecast layout! Learn more

10-Day Weather Forecast

Advertisements
Track Severe Weather on mobile